sensor_id;sensor_type;location;lat;lon;timestamp;temperature;humidity
52381;DHT22;38310;52.796;6.942;2023-06-10T00:01:55;16.70;99.90
52381;DHT22;38310;52.796;6.942;2023-06-10T00:04:26;16.60;99.90
52381;DHT22;38310;52.796;6.942;2023-06-10T00:06:52;16.60;99.90
52381;DHT22;38310;52.796;6.942;2023-06-10T00:09:19;16.60;99.90
52381;DHT22;38310;52.796;6.942;2023-06-10T00:11:46;16.60;99.90
52381;DHT22;38310;52.796;6.942;2023-06-10T00:14:13;16.60;99.90
52381;DHT22;38310;52.796;6.942;2023-06-10T00:16:39;16.50;99.90
52381;DHT22;38310;52.796;6.942;2023-06-10T00:19:05;16.50;99.90
52381;DHT22;38310;52.796;6.942;2023-06-10T00:21:32;16.50;99.90
52381;DHT22;38310;52.796;6.942;2023-06-10T00:24:07;16.40;99.90
52381;DHT22;38310;52.796;6.942;2023-06-10T00:26:34;16.40;99.90
52381;DHT22;38310;52.796;6.942;2023-06-10T00:29:00;16.40;99.90
52381;DHT22;38310;52.796;6.942;2023-06-10T00:31:26;16.30;99.90
52381;DHT22;38310;52.796;6.942;2023-06-10T00:33:55;16.30;99.90
52381;DHT22;38310;52.796;6.942;2023-06-10T00:36:21;16.30;99.90
52381;DHT22;38310;52.796;6.942;2023-06-10T00:38:47;16.30;99.90
52381;DHT22;38310;52.796;6.942;2023-06-10T00:41:13;16.20;99.90
52381;DHT22;38310;52.796;6.942;2023-06-10T00:43:39;16.20;99.90
52381;DHT22;38310;52.796;6.942;2023-06-10T00:46:05;16.20;99.90
52381;DHT22;38310;52.796;6.942;2023-06-10T00:48:31;16.20;99.90
52381;DHT22;38310;52.796;6.942;2023-06-10T00:50:58;16.10;99.90
52381;DHT22;38310;52.796;6.942;2023-06-10T00:53:24;16.10;99.90
52381;DHT22;38310;52.796;6.942;2023-06-10T00:55:51;16.00;99.90
52381;DHT22;38310;52.796;6.942;2023-06-10T00:58:17;16.00;99.90
52381;DHT22;38310;52.796;6.942;2023-06-10T01:00:43;16.00;99.90
52381;DHT22;38310;52.796;6.942;2023-06-10T01:03:11;15.90;99.90
52381;DHT22;38310;52.796;6.942;2023-06-10T01:05:38;15.90;99.90
52381;DHT22;38310;52.796;6.942;2023-06-10T01:08:28;15.80;99.90
52381;DHT22;38310;52.796;6.942;2023-06-10T01:11:00;15.80;99.90
52381;DHT22;38310;52.796;6.942;2023-06-10T01:13:27;15.70;99.90
52381;DHT22;38310;52.796;6.942;2023-06-10T01:15:55;15.70;99.90
52381;DHT22;38310;52.796;6.942;2023-06-10T01:18:22;15.70;99.90
52381;DHT22;38310;52.796;6.942;2023-06-10T01:20:48;15.60;99.90
52381;DHT22;38310;52.796;6.942;2023-06-10T01:23:15;15.60;99.90
52381;DHT22;38310;52.796;6.942;2023-06-10T01:31:20;15.50;99.90
52381;DHT22;38310;52.796;6.942;2023-06-10T01:33:52;15.50;99.90
52381;DHT22;38310;52.796;6.942;2023-06-10T01:36:19;15.40;99.90
52381;DHT22;38310;52.796;6.942;2023-06-10T01:38:48;15.40;99.90
52381;DHT22;38310;52.796;6.942;2023-06-10T01:41:18;15.40;99.90
52381;DHT22;38310;52.796;6.942;2023-06-10T01:43:47;15.40;99.90
52381;DHT22;38310;52.796;6.942;2023-06-10T01:46:13;15.40;99.90
52381;DHT22;38310;52.796;6.942;2023-06-10T01:48:39;15.40;99.90
52381;DHT22;38310;52.796;6.942;2023-06-10T01:51:05;15.40;99.90
52381;DHT22;38310;52.796;6.942;2023-06-10T01:53:31;15.40;99.90
52381;DHT22;38310;52.796;6.942;2023-06-10T01:55:56;15.40;99.90
52381;DHT22;38310;52.796;6.942;2023-06-10T01:58:22;15.40;99.90
52381;DHT22;38310;52.796;6.942;2023-06-10T02:00:48;15.40;99.90
52381;DHT22;38310;52.796;6.942;2023-06-10T02:03:13;15.40;99.90
52381;DHT22;38310;52.796;6.942;2023-06-10T02:05:39;15.40;99.90
52381;DHT22;38310;52.796;6.942;2023-06-10T02:08:05;15.40;99.90
52381;DHT22;38310;52.796;6.942;2023-06-10T02:10:31;15.30;99.90
52381;DHT22;38310;52.796;6.942;2023-06-10T02:12:57;15.30;99.90
52381;DHT22;38310;52.796;6.942;2023-06-10T02:15:23;15.30;99.90
52381;DHT22;38310;52.796;6.942;2023-06-10T02:17:48;15.30;99.90
52381;DHT22;38310;52.796;6.942;2023-06-10T02:20:14;15.30;99.90
52381;DHT22;38310;52.796;6.942;2023-06-10T02:22:40;15.20;99.90
52381;DHT22;38310;52.796;6.942;2023-06-10T02:25:06;15.20;99.90
52381;DHT22;38310;52.796;6.942;2023-06-10T02:27:32;15.10;99.90
52381;DHT22;38310;52.796;6.942;2023-06-10T02:29:58;15.10;99.90
52381;DHT22;38310;52.796;6.942;2023-06-10T02:32:24;15.10;99.90
52381;DHT22;38310;52.796;6.942;2023-06-10T02:34:51;15.10;99.90
52381;DHT22;38310;52.796;6.942;2023-06-10T02:37:17;15.00;99.90
52381;DHT22;38310;52.796;6.942;2023-06-10T02:39:43;14.90;99.90
52381;DHT22;38310;52.796;6.942;2023-06-10T02:42:08;14.90;99.90
52381;DHT22;38310;52.796;6.942;2023-06-10T02:44:35;14.90;99.90
52381;DHT22;38310;52.796;6.942;2023-06-10T02:47:01;14.90;99.90
52381;DHT22;38310;52.796;6.942;2023-06-10T02:49:27;14.80;99.90
52381;DHT22;38310;52.796;6.942;2023-06-10T02:51:56;14.80;99.90
52381;DHT22;38310;52.796;6.942;2023-06-10T02:54:23;14.80;99.90
52381;DHT22;38310;52.796;6.942;2023-06-10T02:56:49;14.80;99.90
52381;DHT22;38310;52.796;6.942;2023-06-10T02:59:15;14.70;99.90
52381;DHT22;38310;52.796;6.942;2023-06-10T03:01:41;14.70;99.90
52381;DHT22;38310;52.796;6.942;2023-06-10T03:04:07;14.70;99.90
52381;DHT22;38310;52.796;6.942;2023-06-10T03:06:34;14.60;99.90
52381;DHT22;38310;52.796;6.942;2023-06-10T03:09:02;14.60;99.90
52381;DHT22;38310;52.796;6.942;2023-06-10T03:11:29;14.60;99.90
52381;DHT22;38310;52.796;6.942;2023-06-10T03:13:56;14.60;99.90
52381;DHT22;38310;52.796;6.942;2023-06-10T03:16:21;14.60;99.90
52381;DHT22;38310;52.796;6.942;2023-06-10T03:18:48;14.60;99.90
52381;DHT22;38310;52.796;6.942;2023-06-10T03:21:14;14.50;99.90
52381;DHT22;38310;52.796;6.942;2023-06-10T03:23:40;14.50;99.90
52381;DHT22;38310;52.796;6.942;2023-06-10T03:26:05;14.40;99.90
52381;DHT22;38310;52.796;6.942;2023-06-10T03:28:31;14.40;99.90
52381;DHT22;38310;52.796;6.942;2023-06-10T03:30:57;14.40;99.90
52381;DHT22;38310;52.796;6.942;2023-06-10T03:33:23;14.30;99.90
52381;DHT22;38310;52.796;6.942;2023-06-10T03:35:49;14.30;99.90
52381;DHT22;38310;52.796;6.942;2023-06-10T03:38:15;14.30;99.90
52381;DHT22;38310;52.796;6.942;2023-06-10T03:40:41;14.20;99.90
52381;DHT22;38310;52.796;6.942;2023-06-10T03:43:07;13.70;99.90
52381;DHT22;38310;52.796;6.942;2023-06-10T03:45:33;14.20;99.90
52381;DHT22;38310;52.796;6.942;2023-06-10T03:47:59;14.20;99.90
52381;DHT22;38310;52.796;6.942;2023-06-10T03:50:25;14.20;99.90
52381;DHT22;38310;52.796;6.942;2023-06-10T03:52:51;14.20;99.90
52381;DHT22;38310;52.796;6.942;2023-06-10T03:55:17;14.20;99.90
52381;DHT22;38310;52.796;6.942;2023-06-10T03:57:43;14.20;99.90
52381;DHT22;38310;52.796;6.942;2023-06-10T04:00:09;14.20;99.90
52381;DHT22;38310;52.796;6.942;2023-06-10T04:02:37;14.20;99.90
52381;DHT22;38310;52.796;6.942;2023-06-10T04:05:03;14.20;99.90
52381;DHT22;38310;52.796;6.942;2023-06-10T04:07:30;14.10;99.90
52381;DHT22;38310;52.796;6.942;2023-06-10T04:09:56;14.20;99.90
52381;DHT22;38310;52.796;6.942;2023-06-10T04:12:22;14.20;99.90
52381;DHT22;38310;52.796;6.942;2023-06-10T04:14:48;14.20;99.90
52381;DHT22;38310;52.796;6.942;2023-06-10T04:17:14;14.20;99.90
52381;DHT22;38310;52.796;6.942;2023-06-10T04:19:39;14.20;99.90
52381;DHT22;38310;52.796;6.942;2023-06-10T04:22:05;14.20;99.90
52381;DHT22;38310;52.796;6.942;2023-06-10T04:24:31;14.20;99.90
52381;DHT22;38310;52.796;6.942;2023-06-10T04:26:57;14.30;99.90
52381;DHT22;38310;52.796;6.942;2023-06-10T04:29:23;14.30;99.90
52381;DHT22;38310;52.796;6.942;2023-06-10T04:31:49;14.30;99.90
52381;DHT22;38310;52.796;6.942;2023-06-10T04:34:16;14.30;99.90
52381;DHT22;38310;52.796;6.942;2023-06-10T04:36:41;14.30;99.90
52381;DHT22;38310;52.796;6.942;2023-06-10T04:39:07;14.20;99.90
52381;DHT22;38310;52.796;6.942;2023-06-10T04:41:33;14.40;99.90
52381;DHT22;38310;52.796;6.942;2023-06-10T04:43:59;14.40;99.90
52381;DHT22;38310;52.796;6.942;2023-06-10T04:46:24;14.50;99.90
52381;DHT22;38310;52.796;6.942;2023-06-10T04:48:50;14.50;99.90
52381;DHT22;38310;52.796;6.942;2023-06-10T04:51:16;14.50;99.90
52381;DHT22;38310;52.796;6.942;2023-06-10T04:53:42;14.50;99.90
52381;DHT22;38310;52.796;6.942;2023-06-10T04:56:08;14.60;99.90
52381;DHT22;38310;52.796;6.942;2023-06-10T04:58:34;14.60;99.90
52381;DHT22;38310;52.796;6.942;2023-06-10T05:01:00;14.70;99.90
52381;DHT22;38310;52.796;6.942;2023-06-10T05:03:26;14.70;99.90
52381;DHT22;38310;52.796;6.942;2023-06-10T05:05:52;14.70;99.90
52381;DHT22;38310;52.796;6.942;2023-06-10T05:08:18;14.70;99.90
52381;DHT22;38310;52.796;6.942;2023-06-10T05:10:44;14.80;99.90
52381;DHT22;38310;52.796;6.942;2023-06-10T05:13:09;14.90;99.90
52381;DHT22;38310;52.796;6.942;2023-06-10T05:15:35;14.90;99.90
52381;DHT22;38310;52.796;6.942;2023-06-10T05:18:01;15.00;99.90
52381;DHT22;38310;52.796;6.942;2023-06-10T05:20:29;15.00;99.90
52381;DHT22;38310;52.796;6.942;2023-06-10T05:22:55;15.10;99.90
52381;DHT22;38310;52.796;6.942;2023-06-10T05:25:21;15.20;99.90
52381;DHT22;38310;52.796;6.942;2023-06-10T05:27:47;15.20;99.90
52381;DHT22;38310;52.796;6.942;2023-06-10T05:30:13;15.30;99.90
52381;DHT22;38310;52.796;6.942;2023-06-10T05:32:38;15.40;99.90
52381;DHT22;38310;52.796;6.942;2023-06-10T05:35:04;15.40;99.90
52381;DHT22;38310;52.796;6.942;2023-06-10T05:37:33;15.50;99.90
52381;DHT22;38310;52.796;6.942;2023-06-10T05:39:59;15.60;99.90
52381;DHT22;38310;52.796;6.942;2023-06-10T05:42:24;15.60;99.90
52381;DHT22;38310;52.796;6.942;2023-06-10T05:44:50;15.70;99.90
52381;DHT22;38310;52.796;6.942;2023-06-10T05:47:16;15.80;99.90
52381;DHT22;38310;52.796;6.942;2023-06-10T05:49:41;15.90;99.90
52381;DHT22;38310;52.796;6.942;2023-06-10T05:52:07;16.00;99.90
52381;DHT22;38310;52.796;6.942;2023-06-10T05:54:33;16.10;99.90
52381;DHT22;38310;52.796;6.942;2023-06-10T05:56:59;16.20;99.90
52381;DHT22;38310;52.796;6.942;2023-06-10T05:59:24;16.30;99.90
52381;DHT22;38310;52.796;6.942;2023-06-10T06:01:50;16.10;99.90
52381;DHT22;38310;52.796;6.942;2023-06-10T06:04:16;16.60;99.90
52381;DHT22;38310;52.796;6.942;2023-06-10T06:06:42;16.70;99.90
52381;DHT22;38310;52.796;6.942;2023-06-10T06:09:07;16.80;99.90
52381;DHT22;38310;52.796;6.942;2023-06-10T06:11:34;16.90;99.90
52381;DHT22;38310;52.796;6.942;2023-06-10T06:14:00;17.00;99.90
52381;DHT22;38310;52.796;6.942;2023-06-10T06:16:26;17.10;99.90
52381;DHT22;38310;52.796;6.942;2023-06-10T06:18:52;17.20;99.90
52381;DHT22;38310;52.796;6.942;2023-06-10T06:21:17;17.40;99.90
52381;DHT22;38310;52.796;6.942;2023-06-10T06:23:43;17.50;99.90
52381;DHT22;38310;52.796;6.942;2023-06-10T06:26:09;17.60;99.90
52381;DHT22;38310;52.796;6.942;2023-06-10T06:28:35;17.70;99.90
52381;DHT22;38310;52.796;6.942;2023-06-10T06:31:00;17.80;99.90
52381;DHT22;38310;52.796;6.942;2023-06-10T06:33:26;17.90;99.90
52381;DHT22;38310;52.796;6.942;2023-06-10T06:35:52;18.00;99.90
52381;DHT22;38310;52.796;6.942;2023-06-10T06:38:18;18.10;99.90
52381;DHT22;38310;52.796;6.942;2023-06-10T06:40:43;18.20;99.90
52381;DHT22;38310;52.796;6.942;2023-06-10T06:43:09;18.30;99.90
52381;DHT22;38310;52.796;6.942;2023-06-10T06:45:35;18.40;99.90
52381;DHT22;38310;52.796;6.942;2023-06-10T06:48:01;18.60;99.90
52381;DHT22;38310;52.796;6.942;2023-06-10T06:50:26;18.60;99.90
52381;DHT22;38310;52.796;6.942;2023-06-10T06:52:52;18.70;99.90
52381;DHT22;38310;52.796;6.942;2023-06-10T06:55:18;18.80;99.90
52381;DHT22;38310;52.796;6.942;2023-06-10T06:57:44;19.00;99.90
52381;DHT22;38310;52.796;6.942;2023-06-10T07:00:10;19.20;99.90
52381;DHT22;38310;52.796;6.942;2023-06-10T07:02:36;19.30;99.90
52381;DHT22;38310;52.796;6.942;2023-06-10T07:05:02;19.40;99.90
52381;DHT22;38310;52.796;6.942;2023-06-10T07:07:28;19.50;99.90
52381;DHT22;38310;52.796;6.942;2023-06-10T07:09:54;19.60;99.90
52381;DHT22;38310;52.796;6.942;2023-06-10T07:12:20;19.70;99.90
52381;DHT22;38310;52.796;6.942;2023-06-10T07:14:49;19.90;99.90
52381;DHT22;38310;52.796;6.942;2023-06-10T07:17:16;19.90;99.90
52381;DHT22;38310;52.796;6.942;2023-06-10T07:19:43;20.00;99.90
52381;DHT22;38310;52.796;6.942;2023-06-10T07:22:09;20.10;99.90
52381;DHT22;38310;52.796;6.942;2023-06-10T07:24:35;20.10;99.90
52381;DHT22;38310;52.796;6.942;2023-06-10T07:27:01;20.20;99.90
52381;DHT22;38310;52.796;6.942;2023-06-10T07:29:26;20.40;99.90
52381;DHT22;38310;52.796;6.942;2023-06-10T07:31:52;20.50;99.90
52381;DHT22;38310;52.796;6.942;2023-06-10T07:34:18;20.60;99.90
52381;DHT22;38310;52.796;6.942;2023-06-10T07:36:44;20.70;99.90
52381;DHT22;38310;52.796;6.942;2023-06-10T07:39:11;21.00;99.90
52381;DHT22;38310;52.796;6.942;2023-06-10T07:41:37;21.00;99.90
52381;DHT22;38310;52.796;6.942;2023-06-10T07:44:02;21.10;99.90
52381;DHT22;38310;52.796;6.942;2023-06-10T07:46:28;21.10;99.90
52381;DHT22;38310;52.796;6.942;2023-06-10T07:48:54;21.20;99.90
52381;DHT22;38310;52.796;6.942;2023-06-10T07:51:21;21.10;99.90
52381;DHT22;38310;52.796;6.942;2023-06-10T07:53:46;21.30;99.90
52381;DHT22;38310;52.796;6.942;2023-06-10T07:56:12;21.50;99.90
52381;DHT22;38310;52.796;6.942;2023-06-10T07:58:38;21.50;99.90
52381;DHT22;38310;52.796;6.942;2023-06-10T08:01:04;21.60;99.90
52381;DHT22;38310;52.796;6.942;2023-06-10T08:03:30;21.80;99.90
52381;DHT22;38310;52.796;6.942;2023-06-10T08:05:55;21.80;99.90
52381;DHT22;38310;52.796;6.942;2023-06-10T08:08:22;22.00;99.90
52381;DHT22;38310;52.796;6.942;2023-06-10T08:10:47;22.10;99.90
52381;DHT22;38310;52.796;6.942;2023-06-10T08:13:14;22.40;99.90
52381;DHT22;38310;52.796;6.942;2023-06-10T08:15:40;22.60;99.90
52381;DHT22;38310;52.796;6.942;2023-06-10T08:18:06;22.70;99.90
52381;DHT22;38310;52.796;6.942;2023-06-10T08:20:31;22.80;99.90
52381;DHT22;38310;52.796;6.942;2023-06-10T08:22:57;22.90;99.90
52381;DHT22;38310;52.796;6.942;2023-06-10T08:25:23;23.00;99.90
52381;DHT22;38310;52.796;6.942;2023-06-10T08:27:49;23.30;99.90
52381;DHT22;38310;52.796;6.942;2023-06-10T08:30:16;23.50;99.90
52381;DHT22;38310;52.796;6.942;2023-06-10T08:32:42;23.40;99.90
52381;DHT22;38310;52.796;6.942;2023-06-10T08:35:08;23.80;99.90
52381;DHT22;38310;52.796;6.942;2023-06-10T08:37:33;24.00;99.90
52381;DHT22;38310;52.796;6.942;2023-06-10T08:39:59;24.20;99.90
52381;DHT22;38310;52.796;6.942;2023-06-10T08:42:28;24.20;99.90
52381;DHT22;38310;52.796;6.942;2023-06-10T08:45:01;24.50;99.90
52381;DHT22;38310;52.796;6.942;2023-06-10T08:47:30;24.60;99.90
52381;DHT22;38310;52.796;6.942;2023-06-10T08:50:03;24.70;99.90
52381;DHT22;38310;52.796;6.942;2023-06-10T08:52:36;25.00;99.90
52381;DHT22;38310;52.796;6.942;2023-06-10T08:55:18;25.00;99.90
52381;DHT22;38310;52.796;6.942;2023-06-10T08:57:45;25.10;99.90
52381;DHT22;38310;52.796;6.942;2023-06-10T09:00:13;25.10;99.90
52381;DHT22;38310;52.796;6.942;2023-06-10T09:02:39;25.30;99.90
52381;DHT22;38310;52.796;6.942;2023-06-10T09:05:06;25.60;99.90
52381;DHT22;38310;52.796;6.942;2023-06-10T09:07:32;25.70;99.90
52381;DHT22;38310;52.796;6.942;2023-06-10T09:10:01;26.00;99.90
52381;DHT22;38310;52.796;6.942;2023-06-10T09:12:29;26.10;99.90
52381;DHT22;38310;52.796;6.942;2023-06-10T09:14:55;25.90;99.90
52381;DHT22;38310;52.796;6.942;2023-06-10T09:17:22;25.90;99.90
52381;DHT22;38310;52.796;6.942;2023-06-10T09:19:48;26.00;99.90
52381;DHT22;38310;52.796;6.942;2023-06-10T09:22:14;26.10;99.90
52381;DHT22;38310;52.796;6.942;2023-06-10T09:24:40;26.40;99.90
52381;DHT22;38310;52.796;6.942;2023-06-10T09:27:08;26.80;99.90
52381;DHT22;38310;52.796;6.942;2023-06-10T09:30:07;26.60;99.90
52381;DHT22;38310;52.796;6.942;2023-06-10T09:32:38;26.70;99.90
52381;DHT22;38310;52.796;6.942;2023-06-10T09:35:09;27.00;99.90
52381;DHT22;38310;52.796;6.942;2023-06-10T09:37:38;27.40;99.90
52381;DHT22;38310;52.796;6.942;2023-06-10T09:40:08;27.40;99.60
52381;DHT22;38310;52.796;6.942;2023-06-10T09:42:37;27.40;99.10
52381;DHT22;38310;52.796;6.942;2023-06-10T09:45:04;27.50;98.60
52381;DHT22;38310;52.796;6.942;2023-06-10T09:47:30;27.60;98.40
52381;DHT22;38310;52.796;6.942;2023-06-10T09:49:56;27.80;97.90
52381;DHT22;38310;52.796;6.942;2023-06-10T09:52:28;28.10;97.60
52381;DHT22;38310;52.796;6.942;2023-06-10T09:54:59;28.20;96.40
52381;DHT22;38310;52.796;6.942;2023-06-10T09:57:25;28.40;95.70
52381;DHT22;38310;52.796;6.942;2023-06-10T09:59:55;28.40;95.70
52381;DHT22;38310;52.796;6.942;2023-06-10T10:02:21;28.40;94.70
52381;DHT22;38310;52.796;6.942;2023-06-10T10:04:47;28.50;94.70
52381;DHT22;38310;52.796;6.942;2023-06-10T10:07:13;28.50;94.90
52381;DHT22;38310;52.796;6.942;2023-06-10T10:09:40;28.60;94.40
52381;DHT22;38310;52.796;6.942;2023-06-10T10:12:10;28.90;94.10
52381;DHT22;38310;52.796;6.942;2023-06-10T10:14:37;28.90;92.50
52381;DHT22;38310;52.796;6.942;2023-06-10T10:17:15;29.10;91.70
52381;DHT22;38310;52.796;6.942;2023-06-10T10:19:48;29.10;91.30
52381;DHT22;38310;52.796;6.942;2023-06-10T10:22:26;29.40;91.50
52381;DHT22;38310;52.796;6.942;2023-06-10T10:24:56;29.20;90.60
52381;DHT22;38310;52.796;6.942;2023-06-10T10:27:53;29.20;90.40
52381;DHT22;38310;52.796;6.942;2023-06-10T10:30:20;29.50;88.70
52381;DHT22;38310;52.796;6.942;2023-06-10T10:33:00;29.80;90.60
52381;DHT22;38310;52.796;6.942;2023-06-10T10:35:30;29.90;87.50
52381;DHT22;38310;52.796;6.942;2023-06-10T10:37:58;30.10;88.30
52381;DHT22;38310;52.796;6.942;2023-06-10T10:40:25;30.30;88.10
52381;DHT22;38310;52.796;6.942;2023-06-10T10:42:54;30.40;87.50
52381;DHT22;38310;52.796;6.942;2023-06-10T10:45:21;30.40;84.40
52381;DHT22;38310;52.796;6.942;2023-06-10T10:47:52;30.40;85.00
52381;DHT22;38310;52.796;6.942;2023-06-10T10:50:20;30.50;84.50
52381;DHT22;38310;52.796;6.942;2023-06-10T10:55:24;30.90;86.40
52381;DHT22;38310;52.796;6.942;2023-06-10T10:58:07;30.80;83.30
52381;DHT22;38310;52.796;6.942;2023-06-10T11:00:43;31.10;82.00
52381;DHT22;38310;52.796;6.942;2023-06-10T11:03:13;31.20;82.30
52381;DHT22;38310;52.796;6.942;2023-06-10T11:05:44;31.30;81.90
52381;DHT22;38310;52.796;6.942;2023-06-10T11:08:13;31.50;80.90
52381;DHT22;38310;52.796;6.942;2023-06-10T11:10:52;31.50;80.40
52381;DHT22;38310;52.796;6.942;2023-06-10T11:13:21;32.00;76.90
52381;DHT22;38310;52.796;6.942;2023-06-10T11:15:49;32.00;78.10
52381;DHT22;38310;52.796;6.942;2023-06-10T11:18:26;31.90;75.80
52381;DHT22;38310;52.796;6.942;2023-06-10T11:21:04;32.00;72.90
52381;DHT22;38310;52.796;6.942;2023-06-10T11:23:32;32.10;75.00
52381;DHT22;38310;52.796;6.942;2023-06-10T11:26:53;32.40;75.60
52381;DHT22;38310;52.796;6.942;2023-06-10T11:31:28;32.30;74.50
52381;DHT22;38310;52.796;6.942;2023-06-10T11:33:55;32.50;75.00
52381;DHT22;38310;52.796;6.942;2023-06-10T11:36:24;32.60;73.30
52381;DHT22;38310;52.796;6.942;2023-06-10T11:38:55;32.70;71.50
52381;DHT22;38310;52.796;6.942;2023-06-10T11:41:21;32.80;69.20
52381;DHT22;38310;52.796;6.942;2023-06-10T11:43:47;33.00;71.00
52381;DHT22;38310;52.796;6.942;2023-06-10T11:46:14;32.90;68.80
52381;DHT22;38310;52.796;6.942;2023-06-10T11:48:51;32.90;67.70
52381;DHT22;38310;52.796;6.942;2023-06-10T11:51:17;33.10;69.50
52381;DHT22;38310;52.796;6.942;2023-06-10T11:53:50;33.10;68.70
52381;DHT22;38310;52.796;6.942;2023-06-10T11:56:27;33.20;68.10
52381;DHT22;38310;52.796;6.942;2023-06-10T11:58:58;33.40;68.90
52381;DHT22;38310;52.796;6.942;2023-06-10T12:01:26;33.50;68.20
52381;DHT22;38310;52.796;6.942;2023-06-10T12:04:09;33.40;67.80
52381;DHT22;38310;52.796;6.942;2023-06-10T12:06:43;33.50;68.00
52381;DHT22;38310;52.796;6.942;2023-06-10T12:09:29;33.60;67.20
52381;DHT22;38310;52.796;6.942;2023-06-10T12:11:58;33.80;66.50
52381;DHT22;38310;52.796;6.942;2023-06-10T12:17:16;33.00;62.80
52381;DHT22;38310;52.796;6.942;2023-06-10T12:19:41;32.70;64.30
52381;DHT22;38310;52.796;6.942;2023-06-10T12:22:07;33.10;65.80
52381;DHT22;38310;52.796;6.942;2023-06-10T12:24:42;33.40;65.00
52381;DHT22;38310;52.796;6.942;2023-06-10T12:27:11;33.70;65.30
52381;DHT22;38310;52.796;6.942;2023-06-10T12:29:37;33.70;64.90
52381;DHT22;38310;52.796;6.942;2023-06-10T12:32:04;34.20;66.30
52381;DHT22;38310;52.796;6.942;2023-06-10T12:34:37;34.20;66.10
52381;DHT22;38310;52.796;6.942;2023-06-10T12:37:05;34.20;63.70
52381;DHT22;38310;52.796;6.942;2023-06-10T12:39:33;34.40;65.30
52381;DHT22;38310;52.796;6.942;2023-06-10T12:41:59;34.30;63.00
52381;DHT22;38310;52.796;6.942;2023-06-10T12:44:31;34.20;62.10
52381;DHT22;38310;52.796;6.942;2023-06-10T12:46:57;34.10;61.30
52381;DHT22;38310;52.796;6.942;2023-06-10T12:49:23;34.00;59.30
52381;DHT22;38310;52.796;6.942;2023-06-10T12:51:49;34.30;61.60
52381;DHT22;38310;52.796;6.942;2023-06-10T12:54:15;34.60;62.10
52381;DHT22;38310;52.796;6.942;2023-06-10T12:56:41;34.50;62.50
52381;DHT22;38310;52.796;6.942;2023-06-10T12:59:07;34.60;62.70
52381;DHT22;38310;52.796;6.942;2023-06-10T13:01:32;34.80;62.20
52381;DHT22;38310;52.796;6.942;2023-06-10T13:03:59;34.40;59.50
52381;DHT22;38310;52.796;6.942;2023-06-10T13:06:25;34.40;58.40
52381;DHT22;38310;52.796;6.942;2023-06-10T13:08:51;34.80;60.20
52381;DHT22;38310;52.796;6.942;2023-06-10T13:11:18;34.10;58.20
52381;DHT22;38310;52.796;6.942;2023-06-10T13:13:45;34.40;59.00
52381;DHT22;38310;52.796;6.942;2023-06-10T13:16:11;34.30;58.50
52381;DHT22;38310;52.796;6.942;2023-06-10T13:18:37;34.50;59.60
52381;DHT22;38310;52.796;6.942;2023-06-10T13:21:04;34.50;59.60
52381;DHT22;38310;52.796;6.942;2023-06-10T13:23:30;34.70;60.00
52381;DHT22;38310;52.796;6.942;2023-06-10T13:25:57;34.50;58.00
52381;DHT22;38310;52.796;6.942;2023-06-10T13:28:23;34.60;57.70
52381;DHT22;38310;52.796;6.942;2023-06-10T13:30:48;34.50;56.90
52381;DHT22;38310;52.796;6.942;2023-06-10T13:33:14;34.50;55.90
52381;DHT22;38310;52.796;6.942;2023-06-10T13:35:40;34.20;56.00
52381;DHT22;38310;52.796;6.942;2023-06-10T13:38:06;34.60;57.30
52381;DHT22;38310;52.796;6.942;2023-06-10T13:40:33;34.80;56.60
52381;DHT22;38310;52.796;6.942;2023-06-10T13:42:58;34.80;56.30
52381;DHT22;38310;52.796;6.942;2023-06-10T13:45:24;34.80;56.70
52381;DHT22;38310;52.796;6.942;2023-06-10T13:47:50;34.60;55.70
52381;DHT22;38310;52.796;6.942;2023-06-10T13:50:16;34.60;57.00
52381;DHT22;38310;52.796;6.942;2023-06-10T13:52:42;34.10;56.00
52381;DHT22;38310;52.796;6.942;2023-06-10T13:55:08;34.30;55.90
52381;DHT22;38310;52.796;6.942;2023-06-10T13:57:34;34.50;56.30
52381;DHT22;38310;52.796;6.942;2023-06-10T14:00:00;34.60;57.10
52381;DHT22;38310;52.796;6.942;2023-06-10T14:02:26;34.50;56.30
52381;DHT22;38310;52.796;6.942;2023-06-10T14:04:51;33.70;55.50
52381;DHT22;38310;52.796;6.942;2023-06-10T14:07:17;33.80;56.70
52381;DHT22;38310;52.796;6.942;2023-06-10T14:09:43;34.00;57.00
52381;DHT22;38310;52.796;6.942;2023-06-10T14:12:09;34.30;57.40
52381;DHT22;38310;52.796;6.942;2023-06-10T14:14:36;34.30;57.60
52381;DHT22;38310;52.796;6.942;2023-06-10T14:17:02;33.90;58.00
52381;DHT22;38310;52.796;6.942;2023-06-10T14:19:29;34.00;58.30
52381;DHT22;38310;52.796;6.942;2023-06-10T14:21:55;33.90;58.30
52381;DHT22;38310;52.796;6.942;2023-06-10T14:24:21;34.00;58.40
52381;DHT22;38310;52.796;6.942;2023-06-10T14:26:47;34.00;58.30
52381;DHT22;38310;52.796;6.942;2023-06-10T14:29:13;33.90;58.70
52381;DHT22;38310;52.796;6.942;2023-06-10T14:31:40;34.00;59.70
52381;DHT22;38310;52.796;6.942;2023-06-10T14:34:06;34.00;59.10
52381;DHT22;38310;52.796;6.942;2023-06-10T14:36:33;33.90;58.80
52381;DHT22;38310;52.796;6.942;2023-06-10T14:38:59;34.10;59.40
52381;DHT22;38310;52.796;6.942;2023-06-10T14:41:25;33.70;57.00
52381;DHT22;38310;52.796;6.942;2023-06-10T14:43:52;33.20;54.20
52381;DHT22;38310;52.796;6.942;2023-06-10T14:46:17;32.90;54.10
52381;DHT22;38310;52.796;6.942;2023-06-10T14:48:46;32.60;53.30
52381;DHT22;38310;52.796;6.942;2023-06-10T14:51:12;32.50;52.80
52381;DHT22;38310;52.796;6.942;2023-06-10T14:53:37;32.40;52.40
52381;DHT22;38310;52.796;6.942;2023-06-10T14:56:04;32.30;52.70
52381;DHT22;38310;52.796;6.942;2023-06-10T14:58:29;32.30;53.00
52381;DHT22;38310;52.796;6.942;2023-06-10T15:00:55;32.40;53.50
52381;DHT22;38310;52.796;6.942;2023-06-10T15:03:21;32.30;52.80
52381;DHT22;38310;52.796;6.942;2023-06-10T15:05:47;32.40;54.20
52381;DHT22;38310;52.796;6.942;2023-06-10T15:08:12;32.50;54.20
52381;DHT22;38310;52.796;6.942;2023-06-10T15:10:38;32.50;54.20
52381;DHT22;38310;52.796;6.942;2023-06-10T15:13:04;32.30;52.90
52381;DHT22;38310;52.796;6.942;2023-06-10T15:15:29;32.70;54.30
52381;DHT22;38310;52.796;6.942;2023-06-10T15:17:55;32.80;54.30
52381;DHT22;38310;52.796;6.942;2023-06-10T15:20:22;32.60;53.90
52381;DHT22;38310;52.796;6.942;2023-06-10T15:22:48;32.50;53.50
52381;DHT22;38310;52.796;6.942;2023-06-10T15:25:14;32.20;53.40
52381;DHT22;38310;52.796;6.942;2023-06-10T15:27:40;32.30;55.10
52381;DHT22;38310;52.796;6.942;2023-06-10T15:30:06;32.20;54.70
52381;DHT22;38310;52.796;6.942;2023-06-10T15:32:31;32.10;55.30
52381;DHT22;38310;52.796;6.942;2023-06-10T15:34:58;32.00;55.10
52381;DHT22;38310;52.796;6.942;2023-06-10T15:37:24;31.80;54.30
52381;DHT22;38310;52.796;6.942;2023-06-10T15:39:50;31.80;55.10
52381;DHT22;38310;52.796;6.942;2023-06-10T15:42:16;31.80;55.70
52381;DHT22;38310;52.796;6.942;2023-06-10T15:44:41;31.70;54.70